YSDU Airport Information

Runway Information
Runway 05 Length 5604 ft width 148 ft
Elevation 935 ft Threshold 0 ft Heading 53
Runway 23 Length 5604 ft Width 148 ft
Elevation 903 ft Threshold 0 ft Heading 233
Runway 11 Length 3501 ft width 60 ft
Elevation 910 ft Threshold 0 ft Heading 118
Runway 29 Length 3501 ft Width 60 ft
Elevation 927 ft Threshold 0 ft Heading 298
Airport Frequencies
Type CTAF Name CTAF Frequency 134 MHZ
Type FSS Name MELBOURNE Frequency 123.9 MHZ
Airport Navaids
Type VOR-DME Name Dubbo Frequency 114400 KHZ
Type NDB Name Dubbo Frequency 251 KHZ
Airport Weather Information & NOTAM
ADDS - METARS form results

(0457 UTC 18 October 2019)
Data provider http://aviationweather.gov/metar/data/
 
METAR text: YSDU 180430Z AUTO 30010KT 220V310 9999 // NCD 24/M08 Q1017 RF00.0/000.0
Conditions at: YSDU (DUBBO , AU) observed 0430 UTC 18 October 2019
Temperature: 24.0°C (75°F)
Dewpoint: -8.0°C (18°F) [RH = 11%]
Pressure (altimeter): 30.03 inches Hg (1017.0 mb)
Winds: from the WNW (300 degrees) at 12 MPH (10 knots; 5.1 m/s)
Visibility: 6 or more miles (10+ km)
Ceiling: at least 12,000 feet AGL
Clouds: sky clear below 12,000 feet AGL
Weather: no significant weather observed at this time

METAR text: YSDU 180400Z AUTO 28011KT 9999 // NCD 24/M08 Q1017
Conditions at: YSDU (DUBBO , AU) observed 0400 UTC 18 October 2019
Temperature: 24.0°C (75°F)
Dewpoint: -8.0°C (18°F) [RH = 11%]
Pressure (altimeter): 30.03 inches Hg (1017.0 mb)
Winds: from the W (280 degrees) at 13 MPH (11 knots; 5.7 m/s)
Visibility: 6 or more miles (10+ km)
Ceiling: at least 12,000 feet AGL
Clouds: sky clear below 12,000 feet AGL
Weather: no significant weather observed at this time

Forecast for: YSDU (DUBBO , AU)
Text: TAF YSDU 172255Z 1800/1818 22008KT CAVOK
Forecast period: 0000 to 0300 UTC 18 October 2019
Forecast type: FROM: standard forecast or significant change
Winds: from the SW (220 degrees) at 9 MPH (8 knots; 4.1 m/s)
Visibility: 6 or more miles 10+ km)
Ceiling: unknown
Clouds: missing
Weather: NSW  (no significant weather)
Text: FM180300 27010KT CAVOK
Forecast period: 0300 to 0900 UTC 18 October 2019
Forecast type: FROM: standard forecast or significant change
Winds: from the W (270 degrees) at 12 MPH (10 knots; 5.1 m/s)
Visibility: 6 or more miles 10+ km)
Ceiling: unknown
Clouds: missing
Weather: NSW  (no significant weather)
Text: FM180900 33006KT CAVOK
Forecast period: 0900 to 1800 UTC 18 October 2019
Forecast type: FROM: standard forecast or significant change
Winds: from the NNW (330 degrees) at 7 MPH (6 knots; 3.1 m/s)
Visibility: 6 or more miles 10+ km)
Ceiling: unknown
Clouds: missing
Weather: NSW  (no significant weather)

Contacts Infinite Flight LiveFlight Admin Panel 

© Qantas Virtual Group